Redstone Army Air Field
KHUA : now visible

Airfield :











YOU CAN JOIN US ON...

 
LOGIN :

Register | Disclaimer

   EN    FR    IT 

 









Legend :    VFR   Marginal VFR   IFR   Intensive IFR   Very Intensive IFR
Visi :
Ceiling :
>= 8 km
>= 3000ft
5 to 8 km
1000 to 3000 ft
1500m to 5 km
500 to 1000 ft
800 to 1500m
200 to 500 ft
< 800m
< 200 ft
Symbols :   Thunderstorms  Fog  Heavy snow  Heavy precipitations  Wind > 20 kt






- Airport Elevation : 684 ft


KHUA - Redstone Army Air Field

CURRENT METAR :
  • 171858Z AUTO 30007KT 9SM OVC018 02/M01 A2998 RMK AO2 SLP159 T00191012

EXPIRED METARs :
  • 171758Z AUTO 34010KT 10SM OVC017 02/M01 A2999 RMK AO2 SLP162 T00161013 10016 20002 51011
  • 171658Z AUTO 31009KT 10SM OVC017 01/M01 A2999 RMK AO2 SLP162 T00131014

TAF AMD TAF KHUA
Valid from the 17 at 17:00 until the 18 at 18:00 UTC


171710Z 1717/1818 28009KT 9999 OVC015 QNH2982INS
BECMG 1719/1720 30010G20KT 9999 OVC020 510003 QNH2991INS
BECMG 1723/1724 30006KT 9999 BKN020 QNH3000INS
BECMG 1808/1809 21006KT 9999 SCT010 QNH3007INS TX05/1718Z TNM02/1813Z
KZME FIR / North America



MET'MAP, your aeronautical weather chart ! - Copyright ORBIFLY December 2007 - Disclaimer

ORBIFLY MET'MAP TEAM :

Programming & Development : Alexandra Zaïnal
Concept & original design : Baudouin d'Aumeries
Assistance for programming : Marc-Olivier Méhu
Technical & hardware support : Manuel Goepfert

Contact : metmap@orbifly.com




SOURCES & CREDITS :

   NOAA       Earth
Advisory